Time;durP1;ratioP1;P1;durP2;ratioP2;P2;SDS_P1;SDS_P2;PMS_P1;PMS_P2;Temp;Humidity;BMP_temperature;BMP_pressure;BME280_temperature;BME280_humidity;BME280_pressure;Samples;Min_cycle;Max_cycle;Signal;HPM_P1;HPM_P2
2022/08/13 00:01:37;;;;;;;;;;;26.10;52.60;;;;;;4968397;28;19997;-84
2022/08/13 00:04:03;;;;;;;;;;;26.00;52.60;;;;;;4968186;28;20407;-84
2022/08/13 00:09:06;;;;;;;;;;;26.00;52.50;;;;;;4968620;28;19921;-85
2022/08/13 00:14:16;;;;;;;;;;;26.00;52.20;;;;;;4968195;28;19916;-84
2022/08/13 00:16:42;;;;;;;;;;;26.00;52.60;;;;;;4968186;28;19909;-84
2022/08/13 00:19:07;;;;;;;;;;;26.00;52.60;;;;;;4950436;28;20414;-85
2022/08/13 00:21:33;;;;;;;;;;;25.90;52.70;;;;;;4967470;28;19964;-84
2022/08/13 00:23:58;;;;;;;;;;;25.90;52.70;;;;;;4968253;28;20746;-84
2022/08/13 00:26:25;;;;;;;;;;;25.90;52.80;;;;;;4967672;28;19914;-84
2022/08/13 00:28:52;;;;;;;;;;;25.80;52.80;;;;;;4967754;28;20419;-85
2022/08/13 00:31:18;;;;;;;;;;;25.70;53.00;;;;;;4967954;28;19910;-85
2022/08/13 00:33:43;;;;;;;;;;;25.70;53.20;;;;;;4967812;28;19910;-85
2022/08/13 00:36:09;;;;;;;;;;;25.50;53.20;;;;;;4950106;28;20276;-84
2022/08/13 00:38:35;;;;;;;;;;;25.50;53.40;;;;;;4967347;28;20129;-85
2022/08/13 00:41:00;;;;;;;;;;;25.60;53.40;;;;;;4967086;28;20685;-84
2022/08/13 00:43:27;;;;;;;;;;;25.50;53.50;;;;;;4949888;28;19910;-85
2022/08/13 00:45:54;;;;;;;;;;;25.50;53.80;;;;;;4967341;28;20322;-85
2022/08/13 00:51:06;;;;;;;;;;;25.40;53.90;;;;;;4967882;28;19973;-84
2022/08/13 00:53:32;;;;;;;;;;;25.30;54.10;;;;;;4967378;28;19934;-85
2022/08/13 00:55:58;;;;;;;;;;;25.20;54.20;;;;;;4966442;28;20703;-85
2022/08/13 00:58:26;;;;;;;;;;;25.20;54.10;;;;;;4967136;28;19914;-85
2022/08/13 01:00:53;;;;;;;;;;;25.10;54.20;;;;;;4966806;28;19925;-84
2022/08/13 01:03:19;;;;;;;;;;;25.20;54.10;;;;;;4956967;28;19952;-85
2022/08/13 01:05:46;;;;;;;;;;;25.10;54.20;;;;;;4964890;28;20469;-85
2022/08/13 01:08:14;;;;;;;;;;;25.10;54.10;;;;;;4966683;28;20648;-84
2022/08/13 01:10:41;;;;;;;;;;;25.10;54.00;;;;;;4966947;28;19949;-85
2022/08/13 01:13:11;;;;;;;;;;;25.10;54.00;;;;;;4967115;28;19917;-84
2022/08/13 01:15:41;;;;;;;;;;;25.10;53.90;;;;;;4966976;28;20020;-85
2022/08/13 01:18:07;;;;;;;;;;;25.10;53.60;;;;;;4966415;28;19968;-85
2022/08/13 01:20:37;;;;;;;;;;;25.10;53.50;;;;;;4933396;28;20671;-84
2022/08/13 01:23:04;;;;;;;;;;;25.00;53.50;;;;;;4960466;28;19914;-84
2022/08/13 01:25:31;;;;;;;;;;;24.90;53.80;;;;;;4966660;28;19957;-85
2022/08/13 01:27:57;;;;;;;;;;;24.90;53.70;;;;;;4966582;28;20294;-85
2022/08/13 01:30:23;;;;;;;;;;;24.80;53.70;;;;;;4948682;28;19910;-83
2022/08/13 01:32:50;;;;;;;;;;;24.90;53.60;;;;;;4966348;28;19968;-84
2022/08/13 01:35:16;;;;;;;;;;;25.00;53.50;;;;;;4966880;28;19929;-85
2022/08/13 01:37:43;;;;;;;;;;;25.00;53.50;;;;;;4966434;28;19964;-85
2022/08/13 01:40:09;;;;;;;;;;;25.00;53.50;;;;;;4966788;28;19924;-85
2022/08/13 01:42:44;;;;;;;;;;;25.00;53.60;;;;;;4966605;28;20004;-84
2022/08/13 01:45:11;;;;;;;;;;;24.90;53.60;;;;;;4966423;28;20280;-84
2022/08/13 01:50:30;;;;;;;;;;;24.70;54.80;;;;;;4966367;28;19917;-84
2022/08/13 01:53:09;;;;;;;;;;;24.50;55.30;;;;;;4965616;28;19910;-85
2022/08/13 01:55:42;;;;;;;;;;;24.40;55.80;;;;;;4966230;28;20446;-85
2022/08/13 01:58:11;;;;;;;;;;;24.30;56.40;;;;;;4966503;28;19936;-84
2022/08/13 02:00:38;;;;;;;;;;;24.30;56.90;;;;;;4948602;28;19925;-85
2022/08/13 02:03:05;;;;;;;;;;;24.20;57.00;;;;;;4966203;28;19910;-85
2022/08/13 02:05:31;;;;;;;;;;;24.20;56.90;;;;;;4948467;28;20383;-84
2022/08/13 02:07:57;;;;;;;;;;;24.20;57.10;;;;;;4965427;28;19910;-84
2022/08/13 02:10:23;;;;;;;;;;;24.10;57.20;;;;;;4966321;28;19914;-84
2022/08/13 02:12:49;;;;;;;;;;;24.00;57.70;;;;;;4965728;28;19910;-84
2022/08/13 02:15:15;;;;;;;;;;;24.00;57.80;;;;;;4965219;28;19910;-84
2022/08/13 02:17:41;;;;;;;;;;;23.90;57.70;;;;;;4965920;28;19910;-84
2022/08/13 02:20:08;;;;;;;;;;;23.90;57.70;;;;;;4966190;28;19918;-85
2022/08/13 02:22:34;;;;;;;;;;;23.90;57.40;;;;;;4965581;28;19910;-85
2022/08/13 02:25:02;;;;;;;;;;;23.90;57.50;;;;;;4951678;28;19965;-86
2022/08/13 02:27:28;;;;;;;;;;;23.80;57.20;;;;;;4966209;28;19910;-84
2022/08/13 02:29:55;;;;;;;;;;;23.80;57.50;;;;;;4965705;28;19925;-84
2022/08/13 02:32:23;;;;;;;;;;;23.80;57.00;;;;;;4965817;28;19909;-85
2022/08/13 02:34:51;;;;;;;;;;;23.80;56.80;;;;;;4965307;28;20008;-85
2022/08/13 02:37:21;;;;;;;;;;;23.70;56.50;;;;;;4965349;28;19914;-85
2022/08/13 02:39:48;;;;;;;;;;;23.70;56.10;;;;;;4965451;28;19910;-85
2022/08/13 02:42:13;;;;;;;;;;;23.70;56.00;;;;;;4963598;28;19918;-85
2022/08/13 02:44:39;;;;;;;;;;;23.70;56.00;;;;;;4965425;28;20508;-85
2022/08/13 02:47:05;;;;;;;;;;;23.70;56.10;;;;;;4965524;28;19977;-84
2022/08/13 02:49:31;;;;;;;;;;;23.70;56.10;;;;;;4965462;28;19910;-85
2022/08/13 02:51:57;;;;;;;;;;;23.70;56.40;;;;;;4964750;28;19917;-84
2022/08/13 02:54:23;;;;;;;;;;;23.80;56.60;;;;;;4965132;28;20346;-84
2022/08/13 02:56:49;;;;;;;;;;;23.80;56.80;;;;;;4983367;28;19992;-85
2022/08/13 02:59:14;;;;;;;;;;;23.70;57.10;;;;;;4984592;28;20594;-84
2022/08/13 03:01:40;;;;;;;;;;;23.70;57.10;;;;;;4966618;28;19957;-84
2022/08/13 03:04:07;;;;;;;;;;;23.60;57.90;;;;;;4984766;28;20299;-85
2022/08/13 03:06:33;;;;;;;;;;;23.40;58.30;;;;;;4984678;28;20383;-84
2022/08/13 03:09:01;;;;;;;;;;;23.40;58.70;;;;;;4984273;28;19932;-84
2022/08/13 03:11:28;;;;;;;;;;;23.40;59.00;;;;;;4982309;28;19980;-84
2022/08/13 03:13:58;;;;;;;;;;;23.30;59.20;;;;;;4984430;28;19913;-85
2022/08/13 03:16:26;;;;;;;;;;;23.20;59.40;;;;;;4966810;28;19910;-84
2022/08/13 03:18:53;;;;;;;;;;;23.30;59.50;;;;;;4984283;28;19920;-85
2022/08/13 03:21:20;;;;;;;;;;;23.30;60.00;;;;;;4966391;28;19917;-83
2022/08/13 03:23:46;;;;;;;;;;;23.20;60.40;;;;;;4957502;28;19910;-84
2022/08/13 03:26:12;;;;;;;;;;;23.10;60.90;;;;;;4980990;28;20025;-84
2022/08/13 03:28:39;;;;;;;;;;;23.10;60.90;;;;;;4984566;28;19914;-84
2022/08/13 03:31:05;;;;;;;;;;;23.10;60.80;;;;;;4986507;28;19909;-85
2022/08/13 03:33:31;;;;;;;;;;;23.00;60.90;;;;;;4988566;28;20454;-84
2022/08/13 03:35:57;;;;;;;;;;;23.10;60.70;;;;;;4988570;28;20000;-85
2022/08/13 03:38:22;;;;;;;;;;;23.00;60.80;;;;;;4988356;28;19917;-84
2022/08/13 03:41:00;;;;;;;;;;;23.00;61.00;;;;;;4988185;28;19924;-84
2022/08/13 03:43:27;;;;;;;;;;;22.90;61.20;;;;;;4970598;28;19917;-84
2022/08/13 03:45:54;;;;;;;;;;;22.80;61.40;;;;;;4988563;28;19910;-85
2022/08/13 03:48:21;;;;;;;;;;;22.80;62.00;;;;;;4987867;28;19944;-85
2022/08/13 03:50:48;;;;;;;;;;;22.80;62.40;;;;;;4988214;28;19936;-85
2022/08/13 03:53:15;;;;;;;;;;;22.80;62.70;;;;;;4987961;28;19909;-84
2022/08/13 03:55:42;;;;;;;;;;;22.80;62.50;;;;;;4988054;28;19928;-85
2022/08/13 03:58:09;;;;;;;;;;;22.70;62.80;;;;;;4987842;28;19916;-85
2022/08/13 04:00:36;;;;;;;;;;;22.70;63.10;;;;;;4970428;28;19961;-85
2022/08/13 04:03:12;;;;;;;;;;;22.70;63.60;;;;;;4969683;28;19909;-85
2022/08/13 04:05:37;;;;;;;;;;;22.50;64.30;;;;;;4987483;28;20044;-84
2022/08/13 04:08:04;;;;;;;;;;;22.50;64.60;;;;;;4969801;28;20000;-84
2022/08/13 04:10:29;;;;;;;;;;;22.40;65.10;;;;;;4985339;28;19957;-85
2022/08/13 04:12:55;;;;;;;;;;;22.40;65.80;;;;;;4958965;28;19917;-84
2022/08/13 04:15:20;;;;;;;;;;;22.30;66.10;;;;;;4987689;28;20295;-84
2022/08/13 04:17:46;;;;;;;;;;;22.30;66.10;;;;;;4987273;28;19920;-85
2022/08/13 04:20:12;;;;;;;;;;;22.30;66.20;;;;;;4969719;28;19919;-84
2022/08/13 04:22:38;;;;;;;;;;;22.30;66.40;;;;;;4986624;28;19917;-85
2022/08/13 04:25:08;;;;;;;;;;;22.30;66.60;;;;;;4957366;28;19909;-84
2022/08/13 04:27:34;;;;;;;;;;;22.20;66.60;;;;;;4987218;28;19914;-84
2022/08/13 04:30:01;;;;;;;;;;;22.20;67.00;;;;;;4986962;28;19910;-84
2022/08/13 04:32:27;;;;;;;;;;;22.10;67.40;;;;;;4986587;28;19910;-85
2022/08/13 04:34:52;;;;;;;;;;;22.10;67.40;;;;;;4986886;28;19910;-84
2022/08/13 04:37:18;;;;;;;;;;;22.00;67.60;;;;;;4987275;28;19917;-84
2022/08/13 04:39:44;;;;;;;;;;;21.90;67.60;;;;;;4986770;28;19913;-84
2022/08/13 04:42:11;;;;;;;;;;;21.90;67.90;;;;;;4986217;28;19918;-84
2022/08/13 04:44:37;;;;;;;;;;;21.90;67.80;;;;;;4987104;28;19956;-85
2022/08/13 04:47:04;;;;;;;;;;;22.00;67.80;;;;;;4986561;28;19918;-84
2022/08/13 04:49:30;;;;;;;;;;;21.90;68.40;;;;;;4986910;28;20387;-84
2022/08/13 04:51:56;;;;;;;;;;;21.90;68.80;;;;;;4986771;28;19913;-84
2022/08/13 04:54:21;;;;;;;;;;;21.80;69.00;;;;;;4987060;28;19992;-84
2022/08/13 04:56:47;;;;;;;;;;;21.90;68.80;;;;;;4986632;28;19991;-85
2022/08/13 04:59:13;;;;;;;;;;;21.80;68.90;;;;;;4987033;28;19919;-84
2022/08/13 05:01:39;;;;;;;;;;;21.90;68.50;;;;;;4986222;28;19917;-84
2022/08/13 05:04:05;;;;;;;;;;;22.00;68.50;;;;;;4987002;28;19949;-84
2022/08/13 05:06:30;;;;;;;;;;;22.00;68.50;;;;;;4986855;28;19952;-84
2022/08/13 05:09:02;;;;;;;;;;;22.20;68.10;;;;;;4986292;28;19949;-85
2022/08/13 05:11:28;;;;;;;;;;;22.40;67.90;;;;;;4976370;28;19917;-84
2022/08/13 05:13:54;;;;;;;;;;;22.80;67.80;;;;;;4983834;28;19910;-84
2022/08/13 05:16:19;;;;;;;;;;;23.10;67.20;;;;;;4985889;28;19909;-84
2022/08/13 05:18:48;;;;;;;;;;;23.40;66.40;;;;;;4986142;28;20000;-84
2022/08/13 05:21:14;;;;;;;;;;;23.40;66.60;;;;;;4986454;28;19922;-84
2022/08/13 05:23:40;;;;;;;;;;;23.50;66.10;;;;;;4977652;28;19917;-84
2022/08/13 05:26:06;;;;;;;;;;;24.00;64.90;;;;;;4981862;28;20411;-85
2022/08/13 05:28:32;;;;;;;;;;;24.40;65.20;;;;;;4986655;28;19933;-85
2022/08/13 05:30:58;;;;;;;;;;;24.80;63.80;;;;;;4986329;28;20295;-84
2022/08/13 05:33:25;;;;;;;;;;;25.10;63.30;;;;;;4986054;28;19955;-84
2022/08/13 05:35:52;;;;;;;;;;;25.30;63.80;;;;;;4986267;28;20026;-84
2022/08/13 05:38:21;;;;;;;;;;;25.60;62.40;;;;;;4986060;28;20025;-84
2022/08/13 05:40:47;;;;;;;;;;;26.00;62.40;;;;;;4986143;28;19924;-85
2022/08/13 05:43:17;;;;;;;;;;;26.20;62.40;;;;;;4986003;28;20111;-85
2022/08/13 05:45:46;;;;;;;;;;;26.50;61.50;;;;;;4985705;28;19983;-85
2022/08/13 05:48:12;;;;;;;;;;;26.80;61.40;;;;;;4985416;28;19910;-85
2022/08/13 05:50:38;;;;;;;;;;;26.90;60.90;;;;;;4985928;28;19917;-85
2022/08/13 05:53:05;;;;;;;;;;;27.10;60.50;;;;;;4985511;28;19917;-85
2022/08/13 05:55:31;;;;;;;;;;;27.50;60.00;;;;;;4984692;28;19921;-85
2022/08/13 05:57:57;;;;;;;;;;;28.00;59.50;;;;;;4985777;28;19917;-84
2022/08/13 06:03:25;;;;;;;;;;;28.20;59.10;;;;;;4985301;28;20004;-85
2022/08/13 06:05:55;;;;;;;;;;;28.50;59.00;;;;;;4985690;28;20029;-85
2022/08/13 06:08:29;;;;;;;;;;;28.70;59.30;;;;;;4985299;28;19944;-85
2022/08/13 06:10:59;;;;;;;;;;;29.10;58.60;;;;;;4979651;28;20020;-84
2022/08/13 06:13:26;;;;;;;;;;;29.30;58.60;;;;;;4978203;28;19953;-85
2022/08/13 06:15:58;;;;;;;;;;;29.60;58.20;;;;;;4985411;28;20004;-85
2022/08/13 06:18:29;;;;;;;;;;;29.70;58.10;;;;;;4985282;28;19960;-85
2022/08/13 06:20:55;;;;;;;;;;;29.60;58.00;;;;;;4985038;28;19918;-85
2022/08/13 06:23:22;;;;;;;;;;;29.80;57.80;;;;;;4979001;28;19957;-86
2022/08/13 06:25:51;;;;;;;;;;;29.50;57.90;;;;;;4978641;28;19910;-84
2022/08/13 06:28:19;;;;;;;;;;;30.10;57.50;;;;;;4984460;28;19910;-84
2022/08/13 06:30:45;;;;;;;;;;;30.60;56.60;;;;;;4984832;28;20425;-84
2022/08/13 06:33:11;;;;;;;;;;;30.50;56.60;;;;;;4967291;28;19906;-85
2022/08/13 06:35:36;;;;;;;;;;;30.60;57.50;;;;;;4984916;28;19910;-86
2022/08/13 06:38:04;;;;;;;;;;;31.10;56.30;;;;;;4984853;28;19921;-86
2022/08/13 06:40:33;;;;;;;;;;;31.40;55.70;;;;;;4984763;28;20012;-85
2022/08/13 06:42:59;;;;;;;;;;;31.90;55.50;;;;;;4966267;28;20642;-86
2022/08/13 06:45:26;;;;;;;;;;;31.90;55.10;;;;;;4984632;28;19910;-86
2022/08/13 06:47:52;;;;;;;;;;;31.70;55.40;;;;;;4984540;28;19909;-86
2022/08/13 06:50:18;;;;;;;;;;;31.90;55.60;;;;;;4984379;28;19909;-86
2022/08/13 06:52:43;;;;;;;;;;;32.20;55.60;;;;;;4984629;28;19921;-86
2022/08/13 06:55:09;;;;;;;;;;;31.90;55.80;;;;;;4984714;28;19944;-86
2022/08/13 06:57:37;;;;;;;;;;;32.40;55.00;;;;;;4984319;28;19910;-85
2022/08/13 07:00:04;;;;;;;;;;;32.40;54.50;;;;;;4984443;28;19913;-86
2022/08/13 07:02:32;;;;;;;;;;;32.40;55.00;;;;;;4966736;28;19989;-86
2022/08/13 07:04:58;;;;;;;;;;;32.80;54.40;;;;;;4985165;28;19910;-86
2022/08/13 07:07:24;;;;;;;;;;;33.00;53.90;;;;;;4988529;28;20310;-86
2022/08/13 07:09:49;;;;;;;;;;;33.20;54.10;;;;;;4977029;28;19992;-86
2022/08/13 07:12:15;;;;;;;;;;;33.40;53.80;;;;;;4972531;28;19911;-86
2022/08/13 07:14:42;;;;;;;;;;;33.60;53.30;;;;;;4988505;28;19917;-86
2022/08/13 07:17:08;;;;;;;;;;;33.00;54.10;;;;;;4988602;28;19973;-85
2022/08/13 07:19:34;;;;;;;;;;;33.70;53.50;;;;;;4970628;28;20013;-86
2022/08/13 07:21:59;;;;;;;;;;;33.70;53.00;;;;;;4987896;28;19917;-86
2022/08/13 07:24:26;;;;;;;;;;;34.80;52.20;;;;;;4974596;28;19920;-86
2022/08/13 07:26:59;;;;;;;;;;;34.60;51.80;;;;;;4987691;28;19910;-86
2022/08/13 07:29:26;;;;;;;;;;;34.90;51.70;;;;;;4970288;28;19910;-86
2022/08/13 07:31:54;;;;;;;;;;;35.60;50.60;;;;;;4988055;28;19910;-86
2022/08/13 07:34:21;;;;;;;;;;;35.70;50.60;;;;;;4987649;28;19917;-86
2022/08/13 07:36:49;;;;;;;;;;;35.60;50.80;;;;;;4987716;28;20279;-86
2022/08/13 07:39:15;;;;;;;;;;;35.70;50.80;;;;;;4988004;28;19965;-86
2022/08/13 07:41:42;;;;;;;;;;;35.50;50.40;;;;;;4987265;28;20454;-85
2022/08/13 07:44:28;;;;;;;;;;;35.50;50.50;;;;;;4987954;28;19925;-85
2022/08/13 07:46:55;;;;;;;;;;;36.10;50.40;;;;;;4986848;28;19957;-86
2022/08/13 07:49:21;;;;;;;;;;;36.20;49.50;;;;;;4987476;28;19910;-86
2022/08/13 07:51:47;;;;;;;;;;;35.80;50.00;;;;;;4987121;28;19917;-85
2022/08/13 07:54:13;;;;;;;;;;;36.20;49.50;;;;;;4987587;28;19920;-86
2022/08/13 07:56:39;;;;;;;;;;;36.70;49.30;;;;;;4986950;28;19922;-86
2022/08/13 07:59:07;;;;;;;;;;;37.00;48.50;;;;;;4987337;28;20662;-86
2022/08/13 08:01:52;;;;;;;;;;;37.00;48.60;;;;;;4987445;28;19922;-86
2022/08/13 08:04:18;;;;;;;;;;;37.40;48.20;;;;;;4987461;28;19916;-86
2022/08/13 08:06:45;;;;;;;;;;;37.10;48.90;;;;;;4987365;28;19914;-86
2022/08/13 08:09:16;;;;;;;;;;;37.10;49.00;;;;;;4986870;28;20674;-88
2022/08/13 08:14:27;;;;;;;;;;;36.80;48.80;;;;;;4987871;28;19996;-85
2022/08/13 08:16:52;;;;;;;;;;;37.80;49.00;;;;;;4986306;28;19910;-86
2022/08/13 08:19:19;;;;;;;;;;;38.50;48.50;;;;;;4986961;28;20374;-86
2022/08/13 08:21:46;;;;;;;;;;;39.10;47.80;;;;;;4986700;28;19925;-86
2022/08/13 08:24:13;;;;;;;;;;;38.80;47.80;;;;;;4956296;28;19918;-86
2022/08/13 08:26:39;;;;;;;;;;;39.20;47.50;;;;;;4960779;28;19917;-86
2022/08/13 08:29:09;;;;;;;;;;;39.50;47.10;;;;;;4969637;28;19932;-86
2022/08/13 08:31:38;;;;;;;;;;;38.50;47.50;;;;;;4987118;28;19949;-86
2022/08/13 08:34:03;;;;;;;;;;;39.10;47.30;;;;;;4986941;28;20383;-86
2022/08/13 08:36:29;;;;;;;;;;;39.10;47.30;;;;;;4987026;28;19910;-86
2022/08/13 08:44:30;;;;;;;;;;;39.60;46.00;;;;;;4987490;28;20755;-87
2022/08/13 08:46:56;;;;;;;;;;;39.00;47.50;;;;;;4986512;28;19916;-86
2022/08/13 08:49:23;;;;;;;;;;;40.20;46.10;;;;;;4986711;28;19913;-85
2022/08/13 08:51:51;;;;;;;;;;;40.20;46.10;;;;;;4986488;28;19909;-86
2022/08/13 08:54:18;;;;;;;;;;;39.20;45.90;;;;;;4986675;28;19941;-86
2022/08/13 08:56:47;;;;;;;;;;;39.90;45.00;;;;;;4986327;28;19955;-87
2022/08/13 08:59:14;;;;;;;;;;;40.50;45.80;;;;;;4986542;28;19909;-86
2022/08/13 09:01:40;;;;;;;;;;;41.00;44.90;;;;;;4986808;28;19924;-86
2022/08/13 09:04:07;;;;;;;;;;;39.90;45.30;;;;;;4986735;28;19910;-87
2022/08/13 09:06:33;;;;;;;;;;;40.60;45.20;;;;;;4986460;28;19910;-87
2022/08/13 09:09:02;;;;;;;;;;;39.90;45.00;;;;;;4985826;28;20547;-86
2022/08/13 09:11:29;;;;;;;;;;;40.60;44.90;;;;;;4976374;28;19921;-86
2022/08/13 09:13:55;;;;;;;;;;;40.80;45.90;;;;;;4984161;28;19930;-87
2022/08/13 09:16:20;;;;;;;;;;;40.70;44.70;;;;;;4986565;28;20170;-86
2022/08/13 09:18:47;;;;;;;;;;;40.30;44.30;;;;;;4986465;28;19910;-86
2022/08/13 09:21:12;;;;;;;;;;;40.60;45.30;;;;;;4986740;28;19953;-85
2022/08/13 09:23:44;;;;;;;;;;;41.50;44.50;;;;;;4977562;28;20414;-86
2022/08/13 09:26:10;;;;;;;;;;;41.90;44.10;;;;;;4982345;28;20371;-87
2022/08/13 09:28:36;;;;;;;;;;;40.80;44.50;;;;;;4986063;28;19909;-86
2022/08/13 09:31:02;;;;;;;;;;;40.00;44.40;;;;;;4986144;28;19914;-86
2022/08/13 09:33:28;;;;;;;;;;;41.10;44.60;;;;;;4985897;28;19944;-86
2022/08/13 09:35:54;;;;;;;;;;;40.20;44.10;;;;;;4986097;28;19916;-87
2022/08/13 09:38:23;;;;;;;;;;;40.20;45.00;;;;;;4986143;28;20287;-86
2022/08/13 09:40:54;;;;;;;;;;;41.20;44.40;;;;;;4985813;28;19924;-85
2022/08/13 09:43:22;;;;;;;;;;;40.40;44.10;;;;;;4985676;28;20009;-86
2022/08/13 09:45:48;;;;;;;;;;;39.90;45.00;;;;;;4985642;28;19932;-86
2022/08/13 09:48:15;;;;;;;;;;;40.10;44.30;;;;;;4985601;28;19941;-86
2022/08/13 09:50:41;;;;;;;;;;;40.20;44.10;;;;;;4985656;28;19921;-85
2022/08/13 09:53:07;;;;;;;;;;;40.70;44.40;;;;;;4985735;28;20345;-86
2022/08/13 09:55:35;;;;;;;;;;;41.50;43.90;;;;;;4985254;28;19922;-86
2022/08/13 09:58:01;;;;;;;;;;;42.00;43.30;;;;;;4985312;28;20613;-86
2022/08/13 10:00:28;;;;;;;;;;;41.60;43.70;;;;;;4985206;28;20016;-86
2022/08/13 10:02:59;;;;;;;;;;;40.40;43.50;;;;;;4985236;28;20068;-86
2022/08/13 10:05:25;;;;;;;;;;;41.10;43.60;;;;;;4984792;28;19918;-86
2022/08/13 10:07:52;;;;;;;;;;;41.40;43.10;;;;;;4985437;28;19910;-86
2022/08/13 10:10:18;;;;;;;;;;;42.00;42.80;;;;;;4984257;28;20394;-86
2022/08/13 10:12:43;;;;;;;;;;;42.10;42.20;;;;;;4955656;28;20004;-87
2022/08/13 10:15:10;;;;;;;;;;;41.40;42.50;;;;;;4985387;28;20650;-86
2022/08/13 10:17:46;;;;;;;;;;;41.50;42.60;;;;;;4984456;28;19909;-86
2022/08/13 10:20:13;;;;;;;;;;;41.50;42.70;;;;;;4966785;28;20501;-86
2022/08/13 10:22:38;;;;;;;;;;;40.70;42.40;;;;;;4983508;28;19914;-87
2022/08/13 10:25:04;;;;;;;;;;;39.50;43.20;;;;;;4972909;28;19960;-86
2022/08/13 10:27:30;;;;;;;;;;;37.80;44.10;;;;;;4973507;28;19914;-85
2022/08/13 10:29:55;;;;;;;;;;;36.00;46.40;;;;;;4963185;28;19914;-87
2022/08/13 10:32:21;;;;;;;;;;;36.90;47.10;;;;;;4966176;28;19981;-86
2022/08/13 10:34:46;;;;;;;;;;;36.40;47.00;;;;;;4969251;28;20611;-89
2022/08/13 10:37:12;;;;;;;;;;;36.20;45.60;;;;;;4974874;28;19909;-86
2022/08/13 10:39:38;;;;;;;;;;;35.70;46.60;;;;;;4979331;28;19989;-88
2022/08/13 10:42:04;;;;;;;;;;;35.30;46.90;;;;;;4951627;28;19926;-86
2022/08/13 10:44:30;;;;;;;;;;;35.10;47.90;;;;;;4947522;28;19916;-87
2022/08/13 10:46:55;;;;;;;;;;;34.90;48.20;;;;;;4964705;28;19945;-85
2022/08/13 10:49:21;;;;;;;;;;;35.50;48.10;;;;;;4949751;28;20348;-83
2022/08/13 10:51:46;;;;;;;;;;;35.80;47.50;;;;;;4972193;28;19921;-85
2022/08/13 10:54:12;;;;;;;;;;;35.60;47.40;;;;;;4972156;28;20484;-85
2022/08/13 10:56:37;;;;;;;;;;;34.70;47.10;;;;;;4962668;28;19926;-83
2022/08/13 10:59:04;;;;;;;;;;;35.00;47.60;;;;;;4964591;28;20026;-82
2022/08/13 11:01:30;;;;;;;;;;;34.90;48.00;;;;;;4964947;28;19922;-83
2022/08/13 11:03:58;;;;;;;;;;;34.80;47.00;;;;;;4963245;28;20852;-83
2022/08/13 11:06:27;;;;;;;;;;;34.90;48.30;;;;;;4963688;28;19914;-83
2022/08/13 11:08:54;;;;;;;;;;;34.70;47.60;;;;;;4949407;28;19914;-81
2022/08/13 11:11:20;;;;;;;;;;;34.90;48.70;;;;;;4971653;28;19918;-87
2022/08/13 11:13:46;;;;;;;;;;;34.60;48.70;;;;;;4960376;28;20487;-91
2022/08/13 11:18:58;;;;;;;;;;;35.30;47.30;;;;;;4971792;28;20013;-89
2022/08/13 11:21:25;;;;;;;;;;;34.10;47.70;;;;;;4970898;28;20171;-91
2022/08/13 11:23:50;;;;;;;;;;;34.40;48.80;;;;;;4973977;28;19905;-96
2022/08/13 11:26:20;;;;;;;;;;;34.30;48.10;;;;;;4957986;28;19914;-95
2022/08/13 11:28:46;;;;;;;;;;;34.40;48.90;;;;;;4951639;28;21395;-91
2022/08/13 11:31:12;;;;;;;;;;;34.70;48.10;;;;;;4968140;28;19917;-89
2022/08/13 11:33:37;;;;;;;;;;;34.80;47.50;;;;;;4966120;28;19921;-89
2022/08/13 11:36:03;;;;;;;;;;;34.60;48.50;;;;;;4954225;28;19918;-89
2022/08/13 11:38:29;;;;;;;;;;;34.60;49.10;;;;;;4966722;28;19910;-90
2022/08/13 11:40:56;;;;;;;;;;;34.50;47.80;;;;;;4943346;28;20381;-87
2022/08/13 11:43:22;;;;;;;;;;;34.10;47.70;;;;;;4944104;28;20291;-85
2022/08/13 11:45:49;;;;;;;;;;;34.50;48.80;;;;;;4965372;28;19910;-87
2022/08/13 11:48:15;;;;;;;;;;;34.60;48.00;;;;;;4963358;28;19921;-87
2022/08/13 11:50:41;;;;;;;;;;;34.60;46.70;;;;;;4962807;28;20295;-86
2022/08/13 11:53:07;;;;;;;;;;;34.40;47.00;;;;;;4937763;28;19914;-89
2022/08/13 11:55:32;;;;;;;;;;;34.60;46.70;;;;;;4964130;28;19929;-90
2022/08/13 11:57:59;;;;;;;;;;;34.60;45.90;;;;;;4969004;28;20554;-88
2022/08/13 12:00:26;;;;;;;;;;;34.70;45.90;;;;;;4967892;28;19929;-87
2022/08/13 12:02:52;;;;;;;;;;;34.70;45.80;;;;;;4968191;28;19914;-89
2022/08/13 12:05:17;;;;;;;;;;;34.80;45.00;;;;;;4968649;28;19917;-89
2022/08/13 12:07:43;;;;;;;;;;;35.00;45.20;;;;;;4969367;28;19910;-89
2022/08/13 12:10:09;;;;;;;;;;;34.90;44.20;;;;;;4972453;28;20424;-88
2022/08/13 12:12:34;;;;;;;;;;;34.90;45.10;;;;;;4952600;28;20386;-90
2022/08/13 12:15:00;;;;;;;;;;;34.80;45.20;;;;;;4951691;28;19953;-89
2022/08/13 12:17:27;;;;;;;;;;;34.60;44.70;;;;;;4967796;28;20326;-89
2022/08/13 12:19:53;;;;;;;;;;;34.60;43.70;;;;;;4967994;28;19914;-86
2022/08/13 12:22:19;;;;;;;;;;;34.60;45.00;;;;;;4968127;28;20268;-88
2022/08/13 12:24:44;;;;;;;;;;;34.70;43.90;;;;;;4975095;28;19914;-88
2022/08/13 12:27:10;;;;;;;;;;;35.00;44.80;;;;;;4969696;28;20044;-86
2022/08/13 12:29:35;;;;;;;;;;;34.80;44.10;;;;;;4950083;28;19985;-88
2022/08/13 12:32:01;;;;;;;;;;;34.40;43.60;;;;;;4966019;28;19914;-86
2022/08/13 12:34:26;;;;;;;;;;;34.30;44.40;;;;;;4965131;28;19926;-87
2022/08/13 12:36:52;;;;;;;;;;;34.70;45.40;;;;;;4961379;28;19972;-89
2022/08/13 12:39:17;;;;;;;;;;;35.00;45.20;;;;;;4946439;28;20467;-85
2022/08/13 12:41:43;;;;;;;;;;;35.10;45.40;;;;;;4959841;28;20009;-84
2022/08/13 12:44:12;;;;;;;;;;;35.10;44.60;;;;;;4964536;28;19914;-84
2022/08/13 12:46:38;;;;;;;;;;;34.90;45.60;;;;;;4960249;28;19940;-96
2022/08/13 12:49:04;;;;;;;;;;;35.00;45.60;;;;;;4962308;28;20763;-85
2022/08/13 12:51:29;;;;;;;;;;;34.80;44.80;;;;;;4958322;28;20037;-84
2022/08/13 12:53:55;;;;;;;;;;;34.50;43.50;;;;;;4940587;28;19914;-84
2022/08/13 12:56:20;;;;;;;;;;;34.40;43.70;;;;;;4960284;28;19929;-84
2022/08/13 12:58:46;;;;;;;;;;;34.60;43.50;;;;;;4959785;28;19953;-85
2022/08/13 13:01:11;;;;;;;;;;;34.60;43.30;;;;;;4959415;28;20041;-86
2022/08/13 13:03:37;;;;;;;;;;;34.60;42.60;;;;;;4958512;28;19918;-84
2022/08/13 13:06:03;;;;;;;;;;;34.50;42.00;;;;;;4964166;28;19918;-86
2022/08/13 13:08:30;;;;;;;;;;;34.60;41.00;;;;;;4947876;28;19925;-84
2022/08/13 13:10:57;;;;;;;;;;;34.30;40.70;;;;;;4962036;28;19960;-85
2022/08/13 13:13:23;;;;;;;;;;;34.20;40.70;;;;;;4957951;28;20049;-84
2022/08/13 13:15:49;;;;;;;;;;;34.30;41.40;;;;;;4957931;28;20395;-83
2022/08/13 13:18:16;;;;;;;;;;;34.90;41.00;;;;;;4964087;28;19918;-85
2022/08/13 13:20:43;;;;;;;;;;;34.90;41.10;;;;;;4958552;28;19922;-84
2022/08/13 13:23:13;;;;;;;;;;;34.70;40.30;;;;;;4957877;28;20355;-84
2022/08/13 13:25:45;;;;;;;;;;;35.10;40.70;;;;;;4960501;28;20522;-84
2022/08/13 13:28:12;;;;;;;;;;;35.20;40.40;;;;;;4960015;28;19997;-85
2022/08/13 13:30:38;;;;;;;;;;;35.50;40.10;;;;;;4957166;28;20013;-84
2022/08/13 13:33:04;;;;;;;;;;;35.40;40.80;;;;;;4958900;28;20427;-83
2022/08/13 13:35:32;;;;;;;;;;;35.30;40.80;;;;;;4945077;28;19972;-84
2022/08/13 13:37:57;;;;;;;;;;;35.10;41.50;;;;;;4958745;28;19918;-84
2022/08/13 13:40:24;;;;;;;;;;;35.00;43.00;;;;;;4962631;28;19925;-85
2022/08/13 13:42:50;;;;;;;;;;;34.60;41.80;;;;;;4960712;28;20287;-85
2022/08/13 13:45:15;;;;;;;;;;;34.60;42.10;;;;;;4961136;28;19921;-84
2022/08/13 13:47:41;;;;;;;;;;;34.60;42.40;;;;;;4963285;28;20013;-84
2022/08/13 13:50:07;;;;;;;;;;;34.40;42.50;;;;;;4962343;28;19946;-84
2022/08/13 13:52:33;;;;;;;;;;;34.60;42.40;;;;;;4958104;28;19968;-84
2022/08/13 13:54:59;;;;;;;;;;;34.50;42.50;;;;;;4959745;28;19914;-83
2022/08/13 13:57:25;;;;;;;;;;;34.30;42.00;;;;;;4942186;28;19985;-84
2022/08/13 13:59:51;;;;;;;;;;;34.40;43.00;;;;;;4960981;28;19914;-83
2022/08/13 14:02:16;;;;;;;;;;;34.30;43.10;;;;;;4944429;28;19926;-83
2022/08/13 14:04:44;;;;;;;;;;;34.10;42.40;;;;;;4947252;28;19918;-86
2022/08/13 14:07:10;;;;;;;;;;;34.00;42.70;;;;;;4960447;28;19925;-85
2022/08/13 14:09:37;;;;;;;;;;;33.80;42.70;;;;;;4949260;28;20384;-85
2022/08/13 14:12:03;;;;;;;;;;;33.80;42.60;;;;;;4959788;28;19925;-84
2022/08/13 14:14:29;;;;;;;;;;;33.80;43.40;;;;;;4958574;28;19921;-84
2022/08/13 14:16:54;;;;;;;;;;;33.90;43.10;;;;;;4953333;28;19915;-84
2022/08/13 14:19:20;;;;;;;;;;;34.30;43.70;;;;;;4959884;28;19913;-84
2022/08/13 14:21:47;;;;;;;;;;;34.20;43.50;;;;;;4960326;28;19937;-84
2022/08/13 14:24:12;;;;;;;;;;;34.10;44.10;;;;;;4962877;28;19921;-85
2022/08/13 14:26:38;;;;;;;;;;;34.00;43.30;;;;;;4964930;28;19910;-84
2022/08/13 14:29:05;;;;;;;;;;;34.00;43.50;;;;;;4965156;28;19916;-84
2022/08/13 14:31:32;;;;;;;;;;;33.90;43.60;;;;;;4964989;28;20000;-84
2022/08/13 14:33:58;;;;;;;;;;;33.80;43.70;;;;;;4964172;28;20385;-85
2022/08/13 14:36:28;;;;;;;;;;;33.90;44.50;;;;;;4961660;28;20449;-85
2022/08/13 14:38:53;;;;;;;;;;;34.00;44.30;;;;;;4965057;28;19913;-84